createdAt,value
2023-04-18T18:11:48.631Z,1561.5454
2023-04-18T18:12:51.151Z,1324.2307
2023-04-18T18:43:53.371Z,614.3571
2023-04-18T18:44:55.966Z,593.0769
2023-04-18T18:47:23.166Z,558.8571
2023-04-18T18:48:25.943Z,586.0769
2023-04-18T18:49:28.319Z,554.0769
2023-04-18T18:50:30.966Z,548.3077
2023-04-18T18:51:33.519Z,537.5385
2023-04-18T18:52:36.109Z,539.6154
2023-04-18T18:53:40.370Z,535.5385
2023-04-18T18:54:41.634Z,535.3846
2023-04-18T18:55:43.850Z,544.8461
2023-04-18T18:56:46.466Z,544.6923
2023-04-18T18:57:49.037Z,528.7692
2023-04-18T18:58:51.639Z,531.7692
2023-04-18T18:59:55.858Z,535.1539
2023-04-18T19:00:56.841Z,530.6154
2023-04-18T19:01:59.509Z,521.8461
2023-04-18T19:03:02.185Z,531.5385
2023-04-18T19:04:04.881Z,529.5385
2023-04-18T19:05:07.246Z,521.8461
2023-04-18T19:06:09.815Z,524.2308
2023-04-18T19:07:12.430Z,518.8461
2023-04-18T19:08:15.030Z,515.2308
2023-04-18T19:09:17.639Z,524.4615
2023-04-18T19:10:20.211Z,526.8461
2023-04-18T19:11:22.832Z,528.3077
2023-04-18T19:12:25.414Z,527.9231
2023-04-18T19:13:28.452Z,527.6154
2023-04-18T19:14:30.637Z,525.7692
2023-04-18T19:15:33.824Z,525.7692
2023-04-18T19:16:35.904Z,526.0000
2023-04-18T19:17:38.470Z,525.0000
2023-04-18T19:18:41.023Z,523.6154
2023-04-18T19:19:43.648Z,524.9231
2023-04-18T19:20:46.218Z,527.6923
2023-04-18T19:21:48.850Z,523.7692
2023-04-18T19:22:51.421Z,529.6154
2023-04-18T19:23:54.045Z,524.3846
2023-04-18T19:24:56.625Z,519.6154
2023-04-18T19:25:59.252Z,517.9231
2023-04-18T19:27:01.824Z,524.7692
2023-04-18T19:28:04.444Z,524.6154
2023-04-18T19:29:07.016Z,524.3846
2023-04-18T19:30:09.632Z,518.0000
2023-04-18T19:31:12.220Z,520.3077
2023-04-18T19:32:14.833Z,518.3077
2023-04-18T19:33:17.437Z,517.6154
2023-04-18T19:34:20.318Z,524.0000
2023-04-18T19:35:22.636Z,527.4615
2023-04-18T19:36:25.380Z,525.8461
2023-04-18T19:37:27.829Z,523.6154
2023-04-18T19:38:30.447Z,521.7692
2023-04-18T19:39:33.030Z,519.9231
2023-04-18T19:40:35.662Z,527.2308
2023-04-18T19:41:38.226Z,526.4615
2023-04-18T19:42:40.844Z,521.2308
2023-04-18T19:43:43.424Z,522.3077
2023-04-18T19:44:46.056Z,524.0000
2023-04-18T19:45:48.681Z,525.6923
2023-04-18T19:46:51.259Z,523.7692
2023-04-18T19:47:53.881Z,518.0000
2023-04-18T19:48:56.469Z,516.7692
2023-04-18T19:49:59.043Z,510.5385
2023-04-18T19:51:01.733Z,515.4615
2023-04-18T19:52:04.292Z,516.2308
2023-04-18T19:53:06.885Z,515.2308
2023-04-18T19:54:09.483Z,520.0769
2023-04-18T19:55:12.095Z,519.4615
2023-04-18T19:56:14.658Z,520.4615
2023-04-18T19:57:17.295Z,522.0769
2023-04-18T19:58:19.861Z,518.4615
